createdAt,value
2022-10-12T00:00:29.194Z,14.30
2022-10-12T00:03:17.710Z,14.40
2022-10-12T00:06:08.160Z,14.40
2022-10-12T00:08:56.519Z,14.40
2022-10-12T00:11:44.875Z,14.40
2022-10-12T00:14:36.710Z,14.40
2022-10-12T00:17:25.106Z,14.40
2022-10-12T00:20:13.934Z,14.40
2022-10-12T00:23:02.335Z,14.40
2022-10-12T00:25:51.109Z,14.40
2022-10-12T00:28:39.598Z,14.30
2022-10-12T00:31:29.683Z,14.20
2022-10-12T00:34:18.065Z,14.10
2022-10-12T00:37:06.400Z,14.00
2022-10-12T00:39:54.739Z,14.00
2022-10-12T00:42:43.036Z,13.90
2022-10-12T00:45:31.379Z,13.90
2022-10-12T00:48:21.128Z,13.80
2022-10-12T00:51:09.524Z,13.80
2022-10-12T00:53:59.915Z,13.70
2022-10-12T00:56:48.434Z,13.70
2022-10-12T00:59:40.261Z,13.60
2022-10-12T01:02:30.424Z,13.50
2022-10-12T01:05:20.328Z,13.50
2022-10-12T01:08:08.715Z,13.50
2022-10-12T01:10:57.540Z,13.40
2022-10-12T01:13:45.852Z,13.30
2022-10-12T01:16:37.383Z,13.30
2022-10-12T01:19:43.647Z,13.30
2022-10-12T01:22:35.116Z,13.20
2022-10-12T01:25:31.598Z,13.20
2022-10-12T01:28:21.948Z,13.10
2022-10-12T01:31:15.593Z,13.10
2022-10-12T01:34:06.434Z,13.00
2022-10-12T01:37:01.526Z,12.90
2022-10-12T01:39:53.098Z,12.90
2022-10-12T01:42:41.921Z,12.80
2022-10-12T01:45:30.352Z,12.80
2022-10-12T01:48:20.045Z,12.80
2022-10-12T01:51:08.410Z,12.70
2022-10-12T01:54:01.654Z,12.70
2022-10-12T01:56:55.897Z,12.70
2022-10-12T01:59:55.990Z,12.70
2022-10-12T02:02:52.347Z,12.60
2022-10-12T02:05:45.713Z,12.50
2022-10-12T02:08:36.767Z,12.50
2022-10-12T02:11:26.441Z,12.50
2022-10-12T02:14:17.199Z,12.50
2022-10-12T02:17:06.490Z,12.40
2022-10-12T02:19:56.789Z,12.40
2022-10-12T02:22:48.163Z,12.40
2022-10-12T02:25:36.515Z,12.40
2022-10-12T02:28:25.948Z,12.40
2022-10-12T02:31:19.634Z,12.40
2022-10-12T02:34:11.649Z,12.40
2022-10-12T02:37:07.356Z,12.40
2022-10-12T02:40:00.892Z,12.30
2022-10-12T02:43:11.880Z,12.30
2022-10-12T02:46:00.303Z,12.30
2022-10-12T02:48:49.291Z,12.20
2022-10-12T02:51:37.686Z,12.20
2022-10-12T02:54:26.149Z,12.10
2022-10-12T02:57:15.847Z,12.00
2022-10-12T03:00:04.803Z,12.00
2022-10-12T03:02:53.127Z,12.00
2022-10-12T03:05:41.515Z,11.90
2022-10-12T03:08:29.894Z,11.90
2022-10-12T03:11:18.255Z,11.90
2022-10-12T03:14:07.932Z,11.90
2022-10-12T03:16:56.293Z,11.90
2022-10-12T03:19:44.630Z,11.90
2022-10-12T03:22:33.015Z,11.90
2022-10-12T03:25:21.362Z,11.90
2022-10-12T03:28:09.734Z,11.90
2022-10-12T03:30:59.571Z,11.90
2022-10-12T03:33:47.923Z,11.90
2022-10-12T03:36:36.319Z,11.90
2022-10-12T03:39:24.685Z,11.90
2022-10-12T03:42:13.914Z,11.90
2022-10-12T03:45:02.275Z,11.90
2022-10-12T03:47:52.067Z,11.90
2022-10-12T03:50:40.448Z,11.80
2022-10-12T03:53:28.910Z,11.90
2022-10-12T03:56:17.294Z,11.80
2022-10-12T03:59:05.741Z,11.80
2022-10-12T04:01:54.213Z,11.80
2022-10-12T04:04:44.210Z,11.80
2022-10-12T04:07:32.595Z,11.70
2022-10-12T04:10:21.015Z,11.70
2022-10-12T04:13:09.424Z,11.70
2022-10-12T04:16:02.747Z,11.70
2022-10-12T04:18:51.118Z,11.70
2022-10-12T04:21:40.998Z,11.70
2022-10-12T04:24:29.396Z,11.70
2022-10-12T04:27:17.794Z,11.70
2022-10-12T04:30:07.556Z,11.60
2022-10-12T04:32:56.477Z,11.60
2022-10-12T04:35:45.159Z,11.60
2022-10-12T04:38:34.901Z,11.60
2022-10-12T04:41:23.442Z,11.60
2022-10-12T04:44:11.873Z,11.60
2022-10-12T04:47:00.401Z,11.60
2022-10-12T04:49:48.813Z,11.60
2022-10-12T04:52:37.173Z,11.60
2022-10-12T04:55:27.382Z,11.60
2022-10-12T04:58:15.907Z,11.60
2022-10-12T05:01:04.335Z,11.70
2022-10-12T05:03:52.675Z,11.70
2022-10-12T05:06:41.074Z,11.70
2022-10-12T05:09:29.432Z,11.70
2022-10-12T05:12:19.189Z,11.70
2022-10-12T05:15:09.220Z,11.70
2022-10-12T05:17:57.744Z,11.70
2022-10-12T05:20:46.093Z,11.70
2022-10-12T05:23:34.462Z,11.70
2022-10-12T05:26:22.802Z,11.70
2022-10-12T05:29:12.572Z,11.70
2022-10-12T05:32:01.234Z,11.70
2022-10-12T05:34:49.585Z,11.70
2022-10-12T05:37:38.173Z,11.70
2022-10-12T05:40:26.653Z,11.60
2022-10-12T05:43:15.029Z,11.60
2022-10-12T05:46:04.756Z,11.60
2022-10-12T05:48:53.085Z,11.60
2022-10-12T05:51:41.611Z,11.60
2022-10-12T05:54:29.918Z,11.50
2022-10-12T05:57:19.321Z,11.50
2022-10-12T06:00:09.458Z,11.50
2022-10-12T06:03:02.121Z,11.50
2022-10-12T06:05:30.123Z,11.50
2022-10-12T06:07:58.178Z,11.40
2022-10-12T06:10:29.828Z,11.40
2022-10-12T06:12:58.124Z,11.50
2022-10-12T06:15:26.215Z,11.50
2022-10-12T06:17:54.240Z,11.50
2022-10-12T06:20:23.651Z,11.50
2022-10-12T06:22:51.704Z,11.50
2022-10-12T06:25:19.737Z,11.50
2022-10-12T06:27:47.786Z,11.60
2022-10-12T06:30:15.972Z,11.60
2022-10-12T06:32:44.118Z,11.60
2022-10-12T06:35:12.268Z,11.60
2022-10-12T06:37:50.284Z,11.70
2022-10-12T06:40:19.239Z,11.70
2022-10-12T06:42:47.278Z,11.70
2022-10-12T06:45:15.713Z,11.70
2022-10-12T06:47:43.877Z,11.60
2022-10-12T06:50:12.091Z,11.60
2022-10-12T06:52:43.480Z,11.70
2022-10-12T06:55:12.478Z,11.60
2022-10-12T06:57:40.575Z,11.60
2022-10-12T07:00:10.131Z,11.60
2022-10-12T07:02:38.379Z,11.70
2022-10-12T07:05:08.477Z,11.70
2022-10-12T07:07:37.482Z,11.70
2022-10-12T07:10:08.601Z,11.70
2022-10-12T07:12:37.272Z,11.80
2022-10-12T07:15:07.150Z,11.80
2022-10-12T07:17:35.516Z,11.90
2022-10-12T07:20:04.186Z,12.00
2022-10-12T07:22:32.276Z,12.10
2022-10-12T07:25:00.481Z,12.20
2022-10-12T07:27:29.915Z,12.30
2022-10-12T07:29:58.220Z,12.40
2022-10-12T07:32:26.385Z,12.40
2022-10-12T07:34:54.481Z,12.50
2022-10-12T07:37:22.604Z,12.50
2022-10-12T07:39:50.728Z,12.60
2022-10-12T07:42:19.706Z,12.60
2022-10-12T07:44:49.423Z,12.60
2022-10-12T07:47:17.790Z,12.60
2022-10-12T07:49:45.928Z,12.70
2022-10-12T07:52:14.126Z,12.80
2022-10-12T07:54:42.321Z,12.90
2022-10-12T07:57:10.453Z,13.00
2022-10-12T07:59:38.682Z,13.20
2022-10-12T08:02:08.150Z,13.40
2022-10-12T08:04:36.294Z,13.70
2022-10-12T08:07:04.523Z,13.90
2022-10-12T08:09:32.670Z,14.00
2022-10-12T08:12:00.731Z,14.10
2022-10-12T08:14:28.923Z,14.20
2022-10-12T08:16:56.976Z,14.30
2022-10-12T08:19:26.489Z,14.40
2022-10-12T08:21:54.551Z,14.60
2022-10-12T08:24:22.825Z,14.80
2022-10-12T08:26:50.930Z,15.00
2022-10-12T08:29:19.035Z,15.20
2022-10-12T08:31:49.394Z,15.50
2022-10-12T08:34:17.705Z,15.60
2022-10-12T08:36:47.799Z,15.80
2022-10-12T08:39:15.962Z,15.90
2022-10-12T08:41:51.434Z,16.00
2022-10-12T08:44:51.805Z,16.10
2022-10-12T08:47:22.688Z,16.20
2022-10-12T08:49:50.779Z,16.30
2022-10-12T08:52:31.472Z,16.30
2022-10-12T08:55:02.137Z,16.20
2022-10-12T08:57:30.211Z,16.10
2022-10-12T08:59:58.647Z,16.00
2022-10-12T09:02:39.608Z,16.00
2022-10-12T09:05:09.637Z,15.90
2022-10-12T09:07:43.223Z,15.80
2022-10-12T09:10:26.366Z,15.80
2022-10-12T09:13:00.463Z,15.70
2022-10-12T09:15:30.725Z,15.60
2022-10-12T09:17:59.777Z,15.60
2022-10-12T09:20:29.850Z,15.60
2022-10-12T09:23:02.252Z,15.70
2022-10-12T09:25:30.390Z,15.90
2022-10-12T09:28:09.042Z,16.00
2022-10-12T09:30:38.477Z,16.20
2022-10-12T09:33:15.838Z,16.30
2022-10-12T09:35:44.011Z,16.40
2022-10-12T09:38:13.424Z,16.60
2022-10-12T09:40:41.521Z,16.70
2022-10-12T09:43:09.709Z,16.90
2022-10-12T09:45:37.763Z,17.00
2022-10-12T09:48:14.742Z,17.20
2022-10-12T09:50:45.433Z,17.30
2022-10-12T09:53:28.035Z,17.40
2022-10-12T09:55:59.713Z,17.60
2022-10-12T09:58:28.636Z,17.70
2022-10-12T10:01:16.364Z,17.90
2022-10-12T10:03:44.579Z,18.00
2022-10-12T10:06:15.199Z,18.20
2022-10-12T10:08:46.274Z,18.40
2022-10-12T10:11:19.876Z,18.50
2022-10-12T10:13:50.588Z,18.70
2022-10-12T10:16:18.617Z,18.80
2022-10-12T10:18:49.105Z,18.90
2022-10-12T10:21:25.124Z,19.00
2022-10-12T10:23:56.463Z,19.00
2022-10-12T10:26:25.665Z,19.00
2022-10-12T10:28:57.865Z,19.00
2022-10-12T10:31:28.036Z,19.00
2022-10-12T10:34:21.366Z,19.00
2022-10-12T10:36:51.427Z,19.00
2022-10-12T10:39:24.137Z,19.00
2022-10-12T10:41:53.331Z,18.90
2022-10-12T10:44:32.148Z,18.90
2022-10-12T10:47:02.147Z,18.80
2022-10-12T10:49:38.397Z,18.70
2022-10-12T10:52:07.176Z,18.60
2022-10-12T10:54:38.561Z,18.60
2022-10-12T10:57:12.127Z,18.50
2022-10-12T10:59:52.753Z,18.50
2022-10-12T11:02:30.876Z,18.50
2022-10-12T11:05:06.844Z,18.50
2022-10-12T11:07:38.541Z,18.40
2022-10-12T11:10:18.396Z,18.40
2022-10-12T11:12:49.608Z,18.40
2022-10-12T11:15:21.841Z,18.40
2022-10-12T11:17:51.285Z,18.40
2022-10-12T11:20:38.155Z,18.40
2022-10-12T11:23:15.053Z,18.40
2022-10-12T11:25:49.275Z,18.40
2022-10-12T11:28:17.978Z,18.40
2022-10-12T11:30:49.328Z,18.40
2022-10-12T11:33:22.336Z,18.40
2022-10-12T11:35:50.577Z,18.50
2022-10-12T11:38:22.366Z,18.60
2022-10-12T11:41:33.892Z,18.70
2022-10-12T11:43:47.292Z,18.80
2022-10-12T11:46:17.367Z,18.90
2022-10-12T11:48:48.948Z,18.90
2022-10-12T11:51:16.955Z,18.90
2022-10-12T11:53:52.374Z,18.90
2022-10-12T11:56:24.261Z,18.90
2022-10-12T11:59:01.090Z,18.90
2022-10-12T12:01:50.814Z,18.90
2022-10-12T12:04:43.320Z,18.80
2022-10-12T12:07:44.984Z,18.80
2022-10-12T12:10:54.078Z,18.90
2022-10-12T12:13:27.219Z,19.00
2022-10-12T12:16:34.608Z,19.10
2022-10-12T12:19:37.944Z,19.20
2022-10-12T12:22:34.761Z,19.40
2022-10-12T12:25:24.245Z,19.60
2022-10-12T12:27:53.657Z,19.70
2022-10-12T12:30:33.427Z,19.90
2022-10-12T12:33:03.196Z,20.10
2022-10-12T12:35:36.282Z,20.40
2022-10-12T12:38:21.457Z,20.60
2022-10-12T12:41:15.108Z,20.80
2022-10-12T12:43:58.157Z,21.00
2022-10-12T12:47:39.946Z,21.20
2022-10-12T12:49:57.211Z,21.40
2022-10-12T12:52:28.779Z,21.70
2022-10-12T12:55:30.131Z,21.80
2022-10-12T12:58:25.502Z,22.00
2022-10-12T13:01:05.077Z,22.10
2022-10-12T13:04:13.456Z,22.30
2022-10-12T13:07:43.889Z,22.50
2022-10-12T13:10:24.503Z,22.70
2022-10-12T13:13:20.328Z,22.80
2022-10-12T13:15:59.904Z,23.00
2022-10-12T13:18:48.833Z,23.10
2022-10-12T13:21:19.881Z,23.20
2022-10-12T13:23:50.284Z,23.30
2022-10-12T13:26:22.642Z,23.30
2022-10-12T13:28:51.031Z,23.40
2022-10-12T13:31:21.781Z,23.40
2022-10-12T13:33:59.345Z,23.50
2022-10-12T13:36:29.295Z,23.50
2022-10-12T13:38:58.085Z,23.40
2022-10-12T13:41:26.584Z,23.40
2022-10-12T13:43:55.554Z,23.40
2022-10-12T13:46:38.771Z,23.30
2022-10-12T13:49:17.600Z,23.40
2022-10-12T13:51:47.397Z,23.40
2022-10-12T13:54:21.143Z,23.40
2022-10-12T13:56:50.206Z,23.40
2022-10-12T13:59:20.140Z,23.40
2022-10-12T14:01:54.393Z,23.40
2022-10-12T14:04:24.173Z,23.50
2022-10-12T14:07:00.027Z,23.50
2022-10-12T14:09:29.117Z,23.60
2022-10-12T14:11:57.132Z,23.70
2022-10-12T14:14:32.786Z,23.80
2022-10-12T14:17:00.840Z,23.90
2022-10-12T14:19:44.922Z,23.90
2022-10-12T14:22:13.554Z,23.90
2022-10-12T14:24:41.690Z,23.80
2022-10-12T14:27:09.823Z,23.70
2022-10-12T14:29:42.541Z,23.70
2022-10-12T14:32:42.518Z,23.60
2022-10-12T14:35:24.763Z,23.60
2022-10-12T14:37:53.681Z,23.60
2022-10-12T14:40:32.487Z,23.60
2022-10-12T14:43:03.479Z,23.60
2022-10-12T14:45:31.783Z,23.50
2022-10-12T14:48:00.067Z,23.50
2022-10-12T14:50:31.395Z,23.50
2022-10-12T14:53:01.663Z,23.50
2022-10-12T14:55:31.867Z,23.40
2022-10-12T14:58:00.030Z,23.40
2022-10-12T15:00:29.849Z,23.40
2022-10-12T15:02:58.131Z,23.40
2022-10-12T15:05:28.826Z,23.40
2022-10-12T15:07:58.188Z,23.50
2022-10-12T15:10:26.523Z,23.50
2022-10-12T16:39:10.663Z,16.30
2022-10-12T16:41:38.676Z,16.10
2022-10-12T16:44:06.757Z,16.20
2022-10-12T16:46:36.814Z,16.40
2022-10-12T16:49:04.955Z,16.60
2022-10-12T16:51:33.053Z,16.90
2022-10-12T16:54:01.185Z,17.10
2022-10-12T16:56:30.635Z,17.30
2022-10-12T16:58:59.561Z,17.40
2022-10-12T17:01:27.635Z,17.60
2022-10-12T17:03:55.779Z,17.70
2022-10-12T17:06:23.935Z,17.80
2022-10-12T17:08:51.974Z,17.90
2022-10-12T17:11:21.206Z,17.90
2022-10-12T17:13:50.573Z,18.00
2022-10-12T17:16:36.585Z,18.00
2022-10-12T17:19:04.680Z,18.00
2022-10-12T17:21:32.786Z,18.00
2022-10-12T17:24:02.719Z,18.00
2022-10-12T17:26:30.883Z,18.00
2022-10-12T17:29:00.402Z,18.00
2022-10-12T17:31:28.650Z,17.80
2022-10-12T17:33:57.579Z,17.90
2022-10-12T17:36:28.237Z,17.80
2022-10-12T17:38:57.213Z,17.80
2022-10-12T17:41:25.336Z,17.70
2022-10-12T17:43:53.416Z,17.70
2022-10-12T17:46:23.057Z,17.60
2022-10-12T17:48:51.680Z,17.60
2022-10-12T17:51:19.815Z,17.60
2022-10-12T17:53:47.892Z,17.50
2022-10-12T17:56:17.403Z,17.50
2022-10-12T17:58:45.463Z,17.40
2022-10-12T18:01:15.519Z,17.40
2022-10-12T18:03:47.214Z,17.40
2022-10-12T18:06:17.183Z,17.30
2022-10-12T18:08:45.420Z,17.30
2022-10-12T18:11:13.595Z,17.20
2022-10-12T18:13:41.784Z,17.20
2022-10-12T18:16:10.470Z,17.10
2022-10-12T18:18:38.621Z,17.00
2022-10-12T18:21:08.690Z,17.00
2022-10-12T18:23:36.883Z,16.90
2022-10-12T18:26:05.324Z,16.90
2022-10-12T18:28:33.474Z,16.80
2022-10-12T18:31:02.778Z,16.80
2022-10-12T18:33:30.922Z,16.70
2022-10-12T18:36:04.156Z,16.70
2022-10-12T18:38:33.845Z,16.60
2022-10-12T18:41:04.855Z,16.60
2022-10-12T18:43:32.993Z,16.60
2022-10-12T18:46:01.049Z,16.50
2022-10-12T18:48:29.102Z,16.50
2022-10-12T18:50:57.528Z,16.50
2022-10-12T18:53:28.069Z,16.50
2022-10-12T18:55:57.517Z,16.50
2022-10-12T18:58:25.663Z,16.50
2022-10-12T19:00:55.061Z,16.40
2022-10-12T19:03:23.232Z,16.40
2022-10-12T19:05:51.332Z,16.40
2022-10-12T19:08:19.522Z,16.40
2022-10-12T19:10:47.527Z,16.40
2022-10-12T19:13:16.914Z,16.40
2022-10-12T19:15:45.198Z,16.40
2022-10-12T19:18:13.245Z,16.40
2022-10-12T19:20:41.330Z,16.40
2022-10-12T19:23:09.531Z,16.40
2022-10-12T19:25:38.877Z,16.40
2022-10-12T19:28:06.943Z,16.40
2022-10-12T19:30:39.666Z,16.40
2022-10-12T19:33:07.752Z,16.40
2022-10-12T19:35:38.378Z,16.40
2022-10-12T19:38:06.524Z,16.40
2022-10-12T19:40:37.493Z,16.40
2022-10-12T19:43:06.792Z,16.40
2022-10-12T19:45:40.657Z,16.40
2022-10-12T19:48:08.982Z,16.40
2022-10-12T19:50:37.224Z,16.40
2022-10-12T19:53:05.423Z,16.40
2022-10-12T19:55:34.069Z,16.40
2022-10-12T19:58:02.369Z,16.40
2022-10-12T20:00:30.527Z,16.30
2022-10-12T20:03:18.583Z,16.30
2022-10-12T20:06:09.207Z,16.30
2022-10-12T20:08:59.023Z,16.40
2022-10-12T20:11:47.375Z,16.20
2022-10-12T20:14:35.747Z,16.10
2022-10-12T20:17:24.072Z,16.10
2022-10-12T20:20:14.125Z,16.00
2022-10-12T20:23:02.498Z,15.90
2022-10-12T20:25:52.156Z,15.90
2022-10-12T20:28:40.549Z,15.90
2022-10-12T20:31:29.361Z,15.80
2022-10-12T20:34:17.733Z,15.80
2022-10-12T20:37:07.474Z,15.70
2022-10-12T20:39:55.844Z,15.70
2022-10-12T20:42:44.249Z,15.70
2022-10-12T20:45:32.692Z,15.60
2022-10-12T20:48:21.161Z,15.60
2022-10-12T20:51:10.157Z,15.50
2022-10-12T20:54:00.986Z,15.60
2022-10-12T20:56:51.876Z,15.60
2022-10-12T20:59:42.043Z,15.60
2022-10-12T21:02:30.429Z,15.60
2022-10-12T21:05:18.875Z,15.70
2022-10-12T21:08:07.207Z,15.70
2022-10-12T21:10:56.954Z,15.80
2022-10-12T21:13:46.007Z,15.80
2022-10-12T21:16:34.388Z,15.80
2022-10-12T21:19:23.010Z,15.80
2022-10-12T21:22:11.440Z,15.80
2022-10-12T21:24:59.812Z,15.80
2022-10-12T21:27:49.544Z,15.90
2022-10-12T21:30:38.551Z,15.90
2022-10-12T21:33:28.287Z,15.90
2022-10-12T21:36:18.328Z,15.90
2022-10-12T21:39:10.208Z,15.90
2022-10-12T21:41:58.677Z,15.90
2022-10-12T21:44:48.441Z,15.90
2022-10-12T21:47:36.861Z,15.90
2022-10-12T21:50:25.240Z,15.90
2022-10-12T21:53:14.263Z,15.90
2022-10-12T21:56:07.497Z,15.90
2022-10-12T21:58:57.930Z,15.90
2022-10-12T22:01:47.673Z,15.90
2022-10-12T22:04:36.091Z,15.90
2022-10-12T22:07:24.557Z,15.90
2022-10-12T22:10:13.005Z,15.90
2022-10-12T22:13:01.346Z,15.90
2022-10-12T22:16:03.183Z,15.90
2022-10-12T22:18:52.916Z,15.90
2022-10-12T22:21:43.803Z,15.90
2022-10-12T22:24:32.368Z,15.90
2022-10-12T22:27:20.808Z,15.90
2022-10-12T22:30:10.040Z,15.90
2022-10-12T22:32:58.443Z,15.90
2022-10-12T22:35:55.415Z,15.90
2022-10-12T22:38:43.798Z,15.90
2022-10-12T22:41:35.128Z,16.00
2022-10-12T22:44:23.475Z,16.00
2022-10-12T22:47:15.625Z,16.00
2022-10-12T22:50:04.013Z,16.00
2022-10-12T22:52:53.697Z,16.00
2022-10-12T22:55:42.054Z,16.00
2022-10-12T22:58:30.443Z,16.00
2022-10-12T23:01:18.819Z,16.00
2022-10-12T23:04:07.997Z,16.00
2022-10-12T23:06:56.373Z,16.00
2022-10-12T23:09:49.216Z,16.00
2022-10-12T23:12:37.595Z,16.00
2022-10-12T23:15:25.939Z,16.00
2022-10-12T23:18:14.279Z,16.00
2022-10-12T23:21:05.352Z,15.70
2022-10-12T23:23:53.701Z,15.90
2022-10-12T23:26:43.404Z,15.90
2022-10-12T23:29:31.786Z,15.90
2022-10-12T23:32:20.453Z,15.80
2022-10-12T23:35:09.706Z,15.80
2022-10-12T23:37:58.036Z,15.80
2022-10-12T23:40:46.997Z,15.70
2022-10-12T23:43:36.747Z,15.60
2022-10-12T23:46:25.167Z,15.60
2022-10-12T23:49:15.394Z,15.50
2022-10-12T23:52:03.755Z,15.50
2022-10-12T23:54:52.098Z,15.40
2022-10-12T23:57:47.049Z,15.40
